Terminal Aerodrome Forecast
Issued by NWS

Home | Current Version | Previous Version | Text Only | Print | Product List | Glossary On
Versions: 1 2 3 4 5 6 7 8 9 10 11 12 13 14 15 16 17 18
888
FTAK31 PAJN 201131
TAFAWG
TAF
PAWG 201131Z 2012/2112 23005KT P6SM VCSH FEW005 SCT010 BKN035
      TEMPO 2012/2016 2SM -SHSN BR BKN005 OVC014
     FM202100 02007KT P6SM SKC
      AMD LTD TO CLD VIS AND WIND 2012/2015=

USA.gov is the U.S. government's official web portal to all federal, state and local government web resources and services.